sensor_id;sensor_type;location;lat;lon;timestamp;pressure;altitude;pressure_sealevel;temperature;humidity
35758;BME280;21879;50.110;18.900;2023-04-25T00:06:43;97607.04;;;13.25;66.26
35758;BME280;21879;50.110;18.900;2023-04-25T00:17:08;97610.01;;;13.29;66.20
35758;BME280;21879;50.110;18.900;2023-04-25T00:27:35;97611.42;;;13.33;65.88
35758;BME280;21879;50.110;18.900;2023-04-25T00:38:01;97612.08;;;13.25;66.01
35758;BME280;21879;50.110;18.900;2023-04-25T00:48:27;97620.79;;;13.21;66.15
35758;BME280;21879;50.110;18.900;2023-04-25T00:58:54;97616.09;;;13.20;66.36
35758;BME280;21879;50.110;18.900;2023-04-25T01:09:20;97617.05;;;13.08;66.09
35758;BME280;21879;50.110;18.900;2023-04-25T01:19:47;97617.19;;;12.75;64.48
35758;BME280;21879;50.110;18.900;2023-04-25T01:30:14;97628.48;;;12.41;63.44
35758;BME280;21879;50.110;18.900;2023-04-25T01:40:41;97631.34;;;12.23;63.49
35758;BME280;21879;50.110;18.900;2023-04-25T01:51:10;97635.46;;;12.15;63.68
35758;BME280;21879;50.110;18.900;2023-04-25T02:01:36;97641.48;;;12.07;63.95
35758;BME280;21879;50.110;18.900;2023-04-25T02:12:03;97654.59;;;11.94;63.85
35758;BME280;21879;50.110;18.900;2023-04-25T02:22:29;97667.74;;;11.86;63.92
35758;BME280;21879;50.110;18.900;2023-04-25T02:32:54;97662.10;;;11.76;64.04
35758;BME280;21879;50.110;18.900;2023-04-25T02:43:29;97666.20;;;11.62;64.00
35758;BME280;21879;50.110;18.900;2023-04-25T02:53:55;97666.77;;;11.49;64.09
35758;BME280;21879;50.110;18.900;2023-04-25T03:04:21;97663.08;;;11.44;64.17
35758;BME280;21879;50.110;18.900;2023-04-25T03:14:48;97662.16;;;11.39;64.11
35758;BME280;21879;50.110;18.900;2023-04-25T03:25:14;97656.34;;;11.36;64.05
35758;BME280;21879;50.110;18.900;2023-04-25T03:35:40;97668.64;;;11.26;63.68
35758;BME280;21879;50.110;18.900;2023-04-25T03:46:07;97685.63;;;11.16;63.59
35758;BME280;21879;50.110;18.900;2023-04-25T03:56:32;97691.30;;;11.12;63.69
35758;BME280;21879;50.110;18.900;2023-04-25T04:06:59;97700.13;;;11.14;63.87
35758;BME280;21879;50.110;18.900;2023-04-25T04:17:25;97704.50;;;11.13;63.62
35758;BME280;21879;50.110;18.900;2023-04-25T04:27:52;97712.84;;;11.07;63.44
35758;BME280;21879;50.110;18.900;2023-04-25T04:38:18;97717.86;;;11.14;63.48
35758;BME280;21879;50.110;18.900;2023-04-25T04:48:45;97715.04;;;11.22;63.61
35758;BME280;21879;50.110;18.900;2023-04-25T04:59:11;97708.22;;;11.36;63.39
35758;BME280;21879;50.110;18.900;2023-04-25T05:09:37;97709.13;;;11.46;63.31
35758;BME280;21879;50.110;18.900;2023-04-25T05:20:05;97705.89;;;11.50;63.33
35758;BME280;21879;50.110;18.900;2023-04-25T05:30:31;97709.89;;;11.56;63.13
35758;BME280;21879;50.110;18.900;2023-04-25T05:40:57;97709.05;;;11.49;62.24
35758;BME280;21879;50.110;18.900;2023-04-25T05:51:24;97707.58;;;11.46;61.71
35758;BME280;21879;50.110;18.900;2023-04-25T06:01:50;97708.56;;;11.48;61.11
35758;BME280;21879;50.110;18.900;2023-04-25T06:12:16;97719.64;;;11.38;60.60
35758;BME280;21879;50.110;18.900;2023-04-25T06:22:42;97724.06;;;11.35;60.42
35758;BME280;21879;50.110;18.900;2023-04-25T06:33:08;97729.66;;;11.34;60.65
35758;BME280;21879;50.110;18.900;2023-04-25T06:43:34;97732.66;;;11.33;60.42
35758;BME280;21879;50.110;18.900;2023-04-25T06:54:01;97726.36;;;11.40;60.52
35758;BME280;21879;50.110;18.900;2023-04-25T07:04:28;97721.33;;;11.40;59.99
35758;BME280;21879;50.110;18.900;2023-04-25T07:14:55;97722.02;;;11.52;60.14
35758;BME280;21879;50.110;18.900;2023-04-25T07:25:20;97718.84;;;11.65;59.67
35758;BME280;21879;50.110;18.900;2023-04-25T07:35:46;97724.20;;;11.72;59.41
35758;BME280;21879;50.110;18.900;2023-04-25T07:46:12;97716.23;;;11.77;59.37
35758;BME280;21879;50.110;18.900;2023-04-25T07:56:38;97722.89;;;11.89;58.63
35758;BME280;21879;50.110;18.900;2023-04-25T08:07:15;97721.31;;;12.00;58.01
35758;BME280;21879;50.110;18.900;2023-04-25T08:17:41;97720.00;;;12.14;57.78
35758;BME280;21879;50.110;18.900;2023-04-25T08:28:08;97710.58;;;12.37;57.37
35758;BME280;21879;50.110;18.900;2023-04-25T08:38:34;97713.47;;;12.60;56.77
35758;BME280;21879;50.110;18.900;2023-04-25T08:49:02;97708.13;;;12.68;55.31
35758;BME280;21879;50.110;18.900;2023-04-25T08:59:29;97710.92;;;12.68;54.37
35758;BME280;21879;50.110;18.900;2023-04-25T09:09:55;97718.80;;;12.78;54.20
35758;BME280;21879;50.110;18.900;2023-04-25T09:20:21;97720.47;;;12.75;53.38
35758;BME280;21879;50.110;18.900;2023-04-25T09:30:47;97721.73;;;12.83;53.61
35758;BME280;21879;50.110;18.900;2023-04-25T09:41:13;97714.15;;;12.96;53.04
35758;BME280;21879;50.110;18.900;2023-04-25T09:51:57;97711.27;;;13.04;52.50
35758;BME280;21879;50.110;18.900;2023-04-25T10:02:24;97716.00;;;13.13;51.74
35758;BME280;21879;50.110;18.900;2023-04-25T10:12:50;97709.88;;;13.24;51.27
35758;BME280;21879;50.110;18.900;2023-04-25T10:23:16;97712.89;;;13.22;50.95
35758;BME280;21879;50.110;18.900;2023-04-25T10:33:44;97715.45;;;13.19;50.66
35758;BME280;21879;50.110;18.900;2023-04-25T10:44:10;97707.80;;;13.18;50.15
35758;BME280;21879;50.110;18.900;2023-04-25T10:54:35;97706.25;;;13.12;50.02
35758;BME280;21879;50.110;18.900;2023-04-25T11:05:06;97711.32;;;13.12;49.55
35758;BME280;21879;50.110;18.900;2023-04-25T11:15:32;97714.37;;;13.00;49.37
35758;BME280;21879;50.110;18.900;2023-04-25T11:25:58;97710.02;;;13.00;49.06
35758;BME280;21879;50.110;18.900;2023-04-25T11:36:26;97718.85;;;12.91;48.43
35758;BME280;21879;50.110;18.900;2023-04-25T11:46:52;97717.89;;;12.94;48.77
35758;BME280;21879;50.110;18.900;2023-04-25T11:57:20;97720.55;;;12.93;48.72
35758;BME280;21879;50.110;18.900;2023-04-25T12:07:47;97715.27;;;12.89;48.57
35758;BME280;21879;50.110;18.900;2023-04-25T12:18:13;97709.76;;;12.82;48.39
35758;BME280;21879;50.110;18.900;2023-04-25T12:28:39;97711.37;;;12.81;48.44
35758;BME280;21879;50.110;18.900;2023-04-25T12:39:05;97719.47;;;12.88;48.55
35758;BME280;21879;50.110;18.900;2023-04-25T12:49:31;97712.02;;;12.92;48.11
35758;BME280;21879;50.110;18.900;2023-04-25T12:59:57;97708.80;;;12.84;47.99
35758;BME280;21879;50.110;18.900;2023-04-25T13:10:23;97701.39;;;12.81;47.97
35758;BME280;21879;50.110;18.900;2023-04-25T13:20:49;97695.62;;;12.72;48.13
35758;BME280;21879;50.110;18.900;2023-04-25T13:31:15;97695.09;;;12.72;48.23
35758;BME280;21879;50.110;18.900;2023-04-25T13:41:41;97693.48;;;12.83;48.55
35758;BME280;21879;50.110;18.900;2023-04-25T13:52:08;97690.17;;;13.03;48.53
35758;BME280;21879;50.110;18.900;2023-04-25T14:02:33;97693.14;;;13.13;48.25
35758;BME280;21879;50.110;18.900;2023-04-25T14:12:59;97692.55;;;13.25;47.77
35758;BME280;21879;50.110;18.900;2023-04-25T14:23:28;97691.70;;;13.19;47.21
35758;BME280;21879;50.110;18.900;2023-04-25T14:33:53;97698.29;;;13.26;48.03
35758;BME280;21879;50.110;18.900;2023-04-25T14:44:22;97697.29;;;13.34;47.69
35758;BME280;21879;50.110;18.900;2023-04-25T14:54:48;97698.59;;;13.32;47.48
35758;BME280;21879;50.110;18.900;2023-04-25T15:05:14;97698.15;;;13.34;47.65
35758;BME280;21879;50.110;18.900;2023-04-25T15:15:40;97691.19;;;13.34;47.55
35758;BME280;21879;50.110;18.900;2023-04-25T15:26:06;97696.11;;;13.38;47.85
35758;BME280;21879;50.110;18.900;2023-04-25T15:36:32;97703.19;;;13.30;47.72
35758;BME280;21879;50.110;18.900;2023-04-25T15:46:59;97710.41;;;13.18;47.85
35758;BME280;21879;50.110;18.900;2023-04-25T15:57:25;97712.49;;;13.19;47.80
35758;BME280;21879;50.110;18.900;2023-04-25T16:07:50;97708.05;;;13.11;47.62
35758;BME280;21879;50.110;18.900;2023-04-25T16:18:17;97715.43;;;13.05;47.84
35758;BME280;21879;50.110;18.900;2023-04-25T16:28:43;97723.95;;;13.01;48.02
35758;BME280;21879;50.110;18.900;2023-04-25T16:39:09;97732.95;;;13.02;47.97
35758;BME280;21879;50.110;18.900;2023-04-25T16:49:35;97731.08;;;13.06;48.23
35758;BME280;21879;50.110;18.900;2023-04-25T17:00:03;97733.90;;;13.00;47.70
35758;BME280;21879;50.110;18.900;2023-04-25T17:10:29;97744.32;;;12.96;47.78
35758;BME280;21879;50.110;18.900;2023-04-25T17:20:55;97754.80;;;12.91;47.44
35758;BME280;21879;50.110;18.900;2023-04-25T17:31:22;97766.80;;;12.82;47.60
35758;BME280;21879;50.110;18.900;2023-04-25T17:41:48;97771.36;;;12.65;47.31
35758;BME280;21879;50.110;18.900;2023-04-25T17:52:14;97785.02;;;12.69;47.61
35758;BME280;21879;50.110;18.900;2023-04-25T18:02:40;97799.52;;;12.52;47.04
35758;BME280;21879;50.110;18.900;2023-04-25T18:13:08;97818.70;;;12.40;47.44
35758;BME280;21879;50.110;18.900;2023-04-25T18:23:34;97837.04;;;12.39;47.40
35758;BME280;21879;50.110;18.900;2023-04-25T18:34:01;97858.22;;;12.31;47.34
35758;BME280;21879;50.110;18.900;2023-04-25T18:44:27;97886.31;;;12.05;47.35
35758;BME280;21879;50.110;18.900;2023-04-25T18:54:54;97900.27;;;11.92;47.62
35758;BME280;21879;50.110;18.900;2023-04-25T19:05:20;97920.27;;;12.13;47.99
35758;BME280;21879;50.110;18.900;2023-04-25T19:15:46;97924.66;;;12.11;47.87
35758;BME280;21879;50.110;18.900;2023-04-25T19:26:12;97929.29;;;11.88;48.24
35758;BME280;21879;50.110;18.900;2023-04-25T19:36:39;97934.22;;;11.66;48.55
35758;BME280;21879;50.110;18.900;2023-04-25T19:47:05;97943.88;;;11.56;48.97
35758;BME280;21879;50.110;18.900;2023-04-25T19:57:31;97952.63;;;11.54;49.26
35758;BME280;21879;50.110;18.900;2023-04-25T20:07:57;97957.78;;;11.36;49.49
35758;BME280;21879;50.110;18.900;2023-04-25T20:18:23;97968.40;;;11.21;50.14
35758;BME280;21879;50.110;18.900;2023-04-25T20:28:50;97973.88;;;11.11;50.60
35758;BME280;21879;50.110;18.900;2023-04-25T20:39:17;97981.06;;;11.00;51.03
35758;BME280;21879;50.110;18.900;2023-04-25T20:49:43;98000.56;;;10.84;51.39
35758;BME280;21879;50.110;18.900;2023-04-25T21:00:11;98012.34;;;10.78;51.73
35758;BME280;21879;50.110;18.900;2023-04-25T21:10:44;98020.27;;;10.72;52.23
35758;BME280;21879;50.110;18.900;2023-04-25T21:21:10;98023.80;;;10.53;52.72
35758;BME280;21879;50.110;18.900;2023-04-25T21:31:37;98025.89;;;10.45;53.26
35758;BME280;21879;50.110;18.900;2023-04-25T21:42:03;98023.36;;;10.32;52.90
35758;BME280;21879;50.110;18.900;2023-04-25T21:52:32;98029.55;;;10.05;52.57
35758;BME280;21879;50.110;18.900;2023-04-25T22:02:58;98057.80;;;9.79;53.86
35758;BME280;21879;50.110;18.900;2023-04-25T22:13:25;98075.95;;;9.62;54.94
35758;BME280;21879;50.110;18.900;2023-04-25T22:23:52;98079.73;;;9.42;55.58
35758;BME280;21879;50.110;18.900;2023-04-25T22:34:20;98083.70;;;9.31;55.63
35758;BME280;21879;50.110;18.900;2023-04-25T22:44:46;98099.64;;;9.45;56.55
35758;BME280;21879;50.110;18.900;2023-04-25T22:55:12;98111.98;;;9.55;56.88
35758;BME280;21879;50.110;18.900;2023-04-25T23:05:38;98114.18;;;9.48;57.52
35758;BME280;21879;50.110;18.900;2023-04-25T23:16:09;98121.77;;;9.39;57.87
35758;BME280;21879;50.110;18.900;2023-04-25T23:26:35;98119.10;;;9.31;57.79
35758;BME280;21879;50.110;18.900;2023-04-25T23:37:00;98128.70;;;9.26;57.69
35758;BME280;21879;50.110;18.900;2023-04-25T23:47:27;98139.00;;;9.23;57.62
35758;BME280;21879;50.110;18.900;2023-04-25T23:57:54;98138.47;;;9.22;57.63
